createdAt,value
2019-03-19T00:00:06.385Z,18.67
2019-03-19T00:02:34.691Z,16.83
2019-03-19T00:05:04.200Z,14.63
2019-03-19T00:07:32.239Z,17.90
2019-03-19T00:10:00.515Z,20.20
2019-03-19T00:12:28.545Z,18.83
2019-03-19T00:14:56.728Z,14.27
2019-03-19T00:17:24.951Z,16.10
2019-03-19T00:19:53.003Z,17.93
2019-03-19T00:22:21.027Z,15.30
2019-03-19T00:24:49.514Z,15.47
2019-03-19T00:27:17.543Z,17.90
2019-03-19T00:29:46.809Z,19.43
2019-03-19T00:32:16.692Z,17.53
2019-03-19T00:34:44.872Z,12.23
2019-03-19T00:37:13.074Z,17.80
2019-03-19T00:39:41.251Z,22.10
2019-03-19T00:42:09.548Z,15.30
2019-03-19T00:44:37.611Z,18.23
2019-03-19T00:47:05.978Z,18.67
2019-03-19T00:49:34.048Z,14.33
2019-03-19T00:52:02.117Z,15.90
2019-03-19T00:54:30.705Z,17.17
2019-03-19T00:56:58.858Z,15.67
2019-03-19T00:59:26.944Z,16.90
2019-03-19T01:01:55.154Z,17.27
2019-03-19T01:04:24.248Z,11.40
2019-03-19T01:06:52.455Z,14.37
2019-03-19T01:09:20.903Z,13.47
2019-03-19T01:11:49.022Z,17.90
2019-03-19T01:14:17.183Z,18.10
2019-03-19T01:16:46.433Z,15.33
2019-03-19T01:19:14.882Z,13.10
2019-03-19T01:21:42.995Z,13.80
2019-03-19T01:24:11.241Z,16.13
2019-03-19T01:26:40.815Z,16.50
2019-03-19T01:29:09.025Z,13.67
2019-03-19T01:31:40.336Z,19.60
2019-03-19T01:34:08.406Z,14.67
2019-03-19T01:36:36.621Z,18.20
2019-03-19T01:39:06.457Z,15.80
2019-03-19T01:41:34.593Z,14.83
2019-03-19T01:44:04.138Z,20.07
2019-03-19T01:46:32.332Z,16.47
2019-03-19T01:49:00.626Z,18.63
2019-03-19T01:51:28.725Z,16.47
2019-03-19T01:53:57.196Z,15.67
2019-03-19T01:56:25.425Z,14.87
2019-03-19T01:58:55.289Z,18.63
2019-03-19T02:01:23.530Z,13.33
2019-03-19T02:03:52.727Z,14.23
2019-03-19T02:06:20.995Z,16.07
2019-03-19T02:08:49.295Z,19.53
2019-03-19T02:11:18.902Z,14.97
2019-03-19T02:13:47.020Z,19.27
2019-03-19T02:16:15.431Z,16.50
2019-03-19T02:18:43.838Z,16.50
2019-03-19T02:21:13.337Z,16.50
2019-03-19T02:23:41.705Z,13.00
2019-03-19T02:26:16.395Z,17.70
2019-03-19T02:28:42.466Z,16.57
2019-03-19T02:31:12.064Z,13.97
2019-03-19T02:33:40.165Z,14.87
2019-03-19T02:36:08.451Z,15.37
2019-03-19T02:38:38.423Z,18.40
2019-03-19T02:41:06.498Z,13.20
2019-03-19T02:43:34.617Z,14.30
2019-03-19T02:46:03.094Z,15.37
2019-03-19T02:48:31.154Z,17.43
2019-03-19T02:50:59.247Z,12.83
2019-03-19T02:53:29.599Z,16.40
2019-03-19T02:55:57.021Z,13.60
2019-03-19T02:58:25.156Z,18.67
2019-03-19T03:00:53.356Z,18.63
2019-03-19T03:03:21.428Z,13.93
2019-03-19T03:05:49.467Z,12.17
2019-03-19T03:08:17.560Z,14.37
2019-03-19T03:10:46.718Z,14.40
2019-03-19T03:13:14.764Z,16.97
2019-03-19T03:15:44.906Z,14.83
2019-03-19T03:18:12.973Z,16.37
2019-03-19T03:20:41.344Z,19.53
2019-03-19T03:23:09.786Z,17.73
2019-03-19T03:25:37.959Z,18.07
2019-03-19T03:28:06.121Z,18.80
2019-03-19T03:30:34.605Z,16.63
2019-03-19T03:33:02.678Z,12.73
2019-03-19T03:35:30.864Z,15.47
2019-03-19T03:37:59.434Z,16.77
2019-03-19T03:40:28.606Z,14.80
2019-03-19T03:42:58.161Z,20.47
2019-03-19T03:45:27.166Z,14.17
2019-03-19T03:47:57.045Z,14.77
2019-03-19T03:50:25.155Z,16.27
2019-03-19T03:52:53.530Z,15.07
2019-03-19T03:55:21.826Z,16.37
2019-03-19T03:57:50.007Z,13.17
2019-03-19T04:00:18.793Z,15.20
2019-03-19T04:02:46.981Z,16.30
2019-03-19T04:05:15.474Z,12.70
2019-03-19T04:07:43.945Z,17.57
2019-03-19T04:10:12.322Z,16.43
2019-03-19T04:12:40.506Z,14.97
2019-03-19T04:15:10.005Z,18.30
2019-03-19T04:17:38.155Z,13.60
2019-03-19T04:20:06.437Z,14.40
2019-03-19T04:22:35.158Z,12.47
2019-03-19T04:25:03.519Z,17.27
2019-03-19T04:27:31.634Z,14.13
2019-03-19T04:30:01.252Z,18.93
2019-03-19T04:32:29.411Z,13.97
2019-03-19T04:34:57.558Z,17.07
2019-03-19T04:37:25.822Z,13.03
2019-03-19T04:39:53.949Z,15.13
2019-03-19T04:42:23.894Z,10.63
2019-03-19T04:44:52.541Z,14.37
2019-03-19T04:47:20.737Z,14.77
2019-03-19T04:49:49.068Z,16.40
2019-03-19T04:52:17.499Z,12.00
2019-03-19T04:54:45.646Z,15.80
2019-03-19T04:57:14.038Z,20.57
2019-03-19T04:59:42.531Z,13.03
2019-03-19T05:02:10.710Z,16.20
2019-03-19T05:04:38.812Z,13.27
2019-03-19T05:07:08.608Z,15.50
2019-03-19T05:09:36.770Z,14.80
2019-03-19T05:12:04.869Z,14.53
2019-03-19T05:14:33.343Z,14.70
2019-03-19T05:17:02.535Z,17.40
2019-03-19T05:19:30.609Z,13.37
2019-03-19T05:22:00.760Z,14.23
2019-03-19T05:24:29.001Z,12.53
2019-03-19T05:26:57.313Z,16.03
2019-03-19T05:29:25.786Z,10.73
2019-03-19T05:31:53.867Z,16.07
2019-03-19T05:34:23.074Z,11.30
2019-03-19T05:36:51.346Z,8.40
2019-03-19T05:39:19.446Z,18.00
2019-03-19T05:41:47.622Z,15.50
2019-03-19T05:44:16.100Z,15.20
2019-03-19T05:46:44.286Z,13.80
2019-03-19T05:49:12.687Z,18.77
2019-03-19T05:51:41.034Z,14.83
2019-03-19T05:54:09.114Z,10.53
2019-03-19T05:56:37.192Z,17.53
2019-03-19T05:59:05.579Z,12.97
2019-03-19T06:01:33.615Z,14.93
2019-03-19T06:04:01.663Z,11.53
2019-03-19T06:06:29.990Z,11.47
2019-03-19T06:08:58.022Z,14.00
2019-03-19T06:11:26.036Z,11.30
2019-03-19T06:13:54.104Z,10.47
2019-03-19T06:16:22.162Z,13.97
2019-03-19T06:18:51.697Z,16.13
2019-03-19T06:21:19.974Z,13.27
2019-03-19T06:23:48.181Z,11.20
2019-03-19T06:26:17.079Z,16.23
2019-03-19T06:28:45.653Z,17.73
2019-03-19T06:31:13.954Z,13.03
2019-03-19T06:33:42.129Z,12.80
2019-03-19T06:36:12.249Z,11.90
2019-03-19T06:38:40.400Z,17.40
2019-03-19T06:41:08.585Z,16.43
2019-03-19T06:43:36.978Z,17.60
2019-03-19T06:46:06.037Z,13.40
2019-03-19T06:48:34.110Z,17.17
2019-03-19T06:51:03.878Z,15.30
2019-03-19T06:53:34.044Z,15.87
2019-03-19T06:56:04.281Z,15.60
2019-03-19T06:58:32.711Z,15.70
2019-03-19T07:01:00.752Z,16.57
2019-03-19T07:03:28.973Z,12.57
2019-03-19T07:05:57.377Z,13.13
2019-03-19T07:08:25.538Z,12.20
2019-03-19T07:10:53.718Z,17.23
2019-03-19T07:13:22.186Z,14.07
2019-03-19T07:15:51.404Z,16.37
2019-03-19T07:18:19.577Z,15.13
2019-03-19T07:20:49.349Z,17.17
2019-03-19T07:23:17.561Z,14.27
2019-03-19T07:25:45.659Z,19.30
2019-03-19T07:28:21.928Z,15.70
2019-03-19T07:30:44.249Z,14.80
2019-03-19T07:33:14.181Z,15.63
2019-03-19T07:35:42.859Z,15.37
2019-03-19T07:38:10.962Z,15.07
2019-03-19T07:40:42.401Z,15.97
2019-03-19T07:43:11.920Z,14.60
2019-03-19T07:45:40.077Z,18.63
2019-03-19T07:48:08.278Z,13.53
2019-03-19T07:50:36.657Z,15.77
2019-03-19T07:53:05.843Z,17.43
2019-03-19T07:55:33.987Z,14.13
2019-03-19T07:58:02.400Z,17.33
2019-03-19T08:00:30.464Z,13.73
2019-03-19T08:03:00.305Z,15.70
2019-03-19T08:05:33.397Z,20.07
2019-03-19T08:08:00.031Z,15.83
2019-03-19T08:10:31.029Z,17.83
2019-03-19T08:12:59.458Z,14.93
2019-03-19T08:15:28.762Z,14.67
2019-03-19T08:17:57.569Z,17.63
2019-03-19T08:20:26.106Z,12.83
2019-03-19T08:22:56.017Z,15.50
2019-03-19T08:25:24.134Z,15.27
2019-03-19T08:27:52.563Z,16.37
2019-03-19T08:30:24.299Z,10.43
2019-03-19T08:32:51.834Z,14.63
2019-03-19T08:35:20.210Z,17.80
2019-03-19T08:37:48.387Z,13.00
2019-03-19T08:40:17.937Z,11.43
2019-03-19T08:42:46.390Z,13.10
2019-03-19T08:45:15.579Z,12.50
2019-03-19T08:47:43.637Z,18.10
2019-03-19T08:50:13.494Z,15.53
2019-03-19T08:52:41.712Z,12.00
2019-03-19T08:55:10.307Z,12.73
2019-03-19T08:57:38.609Z,13.50
2019-03-19T09:00:11.031Z,13.07
2019-03-19T09:02:39.273Z,10.13
2019-03-19T09:05:07.827Z,11.27
2019-03-19T09:07:37.392Z,12.73
2019-03-19T09:10:05.881Z,11.23
2019-03-19T09:12:34.189Z,12.73
2019-03-19T09:15:02.354Z,9.47
2019-03-19T09:17:30.533Z,11.23
2019-03-19T09:19:58.839Z,13.17
2019-03-19T09:22:29.725Z,13.77
2019-03-19T09:24:59.364Z,10.67
2019-03-19T09:27:27.772Z,9.13
2019-03-19T09:29:55.926Z,10.10
2019-03-19T09:32:24.358Z,10.17
2019-03-19T09:34:52.705Z,11.37
2019-03-19T09:37:22.593Z,9.77
2019-03-19T09:39:52.218Z,8.77
2019-03-19T09:42:22.177Z,12.70
2019-03-19T09:44:58.177Z,7.53
2019-03-19T09:47:20.044Z,9.50
2019-03-19T09:49:48.500Z,8.93
2019-03-19T09:52:16.575Z,9.33
2019-03-19T09:54:44.642Z,11.50
2019-03-19T09:57:13.804Z,12.70
2019-03-19T09:59:44.433Z,9.70
2019-03-19T10:02:16.636Z,6.40
2019-03-19T10:04:46.052Z,9.33
2019-03-19T10:07:15.784Z,8.43
2019-03-19T10:09:43.959Z,8.83
2019-03-19T10:12:12.470Z,8.10
2019-03-19T10:14:40.585Z,10.17
2019-03-19T10:17:08.703Z,5.67
2019-03-19T10:19:38.250Z,8.93
2019-03-19T10:22:06.430Z,5.23
2019-03-19T10:24:34.537Z,7.80
2019-03-19T10:27:03.348Z,5.00
2019-03-19T10:29:38.341Z,5.43
2019-03-19T10:32:02.383Z,9.20
2019-03-19T10:34:31.956Z,6.27
2019-03-19T10:37:01.919Z,8.07
2019-03-19T10:39:30.085Z,5.70
2019-03-19T10:41:58.385Z,7.37
2019-03-19T10:44:26.505Z,6.13
2019-03-19T10:46:54.745Z,5.63
2019-03-19T10:49:22.989Z,7.60
2019-03-19T10:51:51.070Z,7.43
2019-03-19T10:54:20.685Z,9.20
2019-03-19T10:56:49.064Z,7.43
2019-03-19T10:59:19.180Z,8.60
2019-03-19T11:01:47.089Z,12.13
2019-03-19T11:04:15.340Z,12.90
2019-03-19T11:06:43.412Z,9.73
2019-03-19T11:09:11.617Z,10.53
2019-03-19T11:11:40.178Z,11.37
2019-03-19T11:14:08.394Z,7.53
2019-03-19T11:16:36.511Z,6.30
2019-03-19T11:19:04.694Z,7.70
2019-03-19T11:21:32.798Z,11.23
2019-03-19T11:24:01.230Z,6.67
2019-03-19T11:26:29.597Z,9.63
2019-03-19T11:28:57.970Z,7.50
2019-03-19T11:31:27.857Z,8.27
2019-03-19T11:33:56.151Z,7.80
2019-03-19T11:36:24.940Z,5.77
2019-03-19T11:38:53.099Z,8.13
2019-03-19T11:41:21.498Z,6.80
2019-03-19T11:43:49.789Z,7.80
2019-03-19T11:46:17.953Z,9.93
2019-03-19T11:48:46.196Z,11.27
2019-03-19T11:51:14.548Z,9.17
2019-03-19T11:53:42.742Z,6.37
2019-03-19T11:56:12.646Z,10.47
2019-03-19T11:58:42.270Z,12.13
2019-03-19T12:01:11.759Z,8.93
2019-03-19T12:03:40.318Z,8.80
2019-03-19T12:06:08.513Z,8.20
2019-03-19T12:08:36.793Z,9.47
2019-03-19T12:11:05.267Z,9.87
2019-03-19T12:13:33.448Z,9.37
2019-03-19T12:16:01.689Z,11.07
2019-03-19T12:18:30.098Z,9.63
2019-03-19T12:20:58.355Z,8.87
2019-03-19T12:23:26.452Z,6.73
2019-03-19T12:25:55.512Z,7.57
2019-03-19T12:28:23.655Z,8.97
2019-03-19T12:30:54.851Z,8.07
2019-03-19T12:33:22.673Z,7.50
2019-03-19T12:35:52.581Z,11.33
2019-03-19T12:38:22.821Z,10.63
2019-03-19T12:40:51.280Z,8.90
2019-03-19T12:43:20.464Z,6.33
2019-03-19T12:45:51.852Z,6.80
2019-03-19T12:48:20.278Z,11.43
2019-03-19T12:50:48.378Z,10.03
2019-03-19T12:53:16.480Z,11.17
2019-03-19T12:55:44.962Z,8.77
2019-03-19T12:58:13.157Z,6.83
2019-03-19T13:00:41.326Z,6.50
2019-03-19T13:03:09.908Z,7.20
2019-03-19T13:05:38.098Z,9.73
2019-03-19T13:08:06.271Z,8.30
2019-03-19T13:10:34.489Z,8.60
2019-03-19T13:13:02.604Z,9.13
2019-03-19T13:15:30.787Z,7.33
2019-03-19T13:17:59.189Z,8.93
2019-03-19T13:20:29.521Z,6.83
2019-03-19T13:22:59.969Z,9.73
2019-03-19T13:25:28.322Z,8.70
2019-03-19T13:27:57.858Z,12.40
2019-03-19T13:30:26.023Z,10.90
2019-03-19T13:32:55.633Z,7.93
2019-03-19T13:35:23.682Z,8.37
2019-03-19T13:37:51.745Z,6.50
2019-03-19T13:40:20.405Z,7.23
2019-03-19T13:42:48.545Z,7.30
2019-03-19T13:45:19.083Z,5.67
2019-03-19T13:47:47.290Z,7.23
2019-03-19T13:50:15.589Z,7.90
2019-03-19T13:52:43.823Z,7.57
2019-03-19T13:55:12.430Z,8.97
2019-03-19T13:57:40.581Z,11.97
2019-03-19T14:00:09.281Z,12.20
2019-03-19T14:02:37.542Z,8.87
2019-03-19T14:05:06.258Z,11.37
2019-03-19T14:07:34.422Z,11.07
2019-03-19T14:10:02.899Z,7.37
2019-03-19T14:12:31.093Z,9.23
2019-03-19T14:15:00.407Z,9.10
2019-03-19T14:17:28.606Z,9.00
2019-03-19T14:19:56.796Z,9.07
2019-03-19T14:22:26.191Z,9.17
2019-03-19T14:24:54.685Z,6.93
2019-03-19T14:27:22.782Z,7.80
2019-03-19T14:29:51.796Z,9.37
2019-03-19T14:32:20.084Z,6.23
2019-03-19T14:34:48.305Z,8.07
2019-03-19T14:37:16.652Z,8.20
2019-03-19T14:39:44.969Z,9.53
2019-03-19T14:42:13.552Z,8.00
2019-03-19T14:44:42.023Z,9.20
2019-03-19T14:47:10.710Z,8.20
2019-03-19T14:49:46.588Z,5.60
2019-03-19T14:52:09.767Z,8.47
2019-03-19T14:54:38.211Z,9.70
2019-03-19T14:57:06.282Z,7.57
2019-03-19T14:59:37.683Z,6.00
2019-03-19T15:02:07.017Z,9.57
2019-03-19T15:04:35.265Z,5.13
2019-03-19T15:07:03.347Z,10.70
2019-03-19T15:09:33.017Z,7.50
2019-03-19T15:12:02.917Z,9.97
2019-03-19T15:14:32.579Z,5.97
2019-03-19T15:17:05.085Z,7.63
2019-03-19T15:19:34.799Z,8.50
2019-03-19T15:22:02.918Z,8.20
2019-03-19T15:24:31.274Z,8.27
2019-03-19T15:27:01.329Z,9.17
2019-03-19T15:29:29.510Z,7.97
2019-03-19T15:31:58.586Z,6.87
2019-03-19T15:34:28.506Z,7.93
2019-03-19T15:36:57.611Z,8.03
2019-03-19T15:39:25.981Z,7.47
2019-03-19T15:41:54.276Z,10.63
2019-03-19T15:44:22.861Z,8.57
2019-03-19T15:46:51.237Z,10.60
2019-03-19T15:49:19.414Z,7.87
2019-03-19T15:51:47.904Z,8.67
2019-03-19T15:54:16.126Z,12.17
2019-03-19T15:56:45.503Z,7.83
2019-03-19T15:59:13.622Z,6.53
2019-03-19T16:01:43.707Z,7.93
2019-03-19T16:04:11.771Z,8.83
2019-03-19T16:06:41.145Z,7.57
2019-03-19T16:09:10.066Z,5.53
2019-03-19T16:11:38.253Z,8.00
2019-03-19T16:14:06.309Z,6.93
2019-03-19T16:16:34.697Z,7.57
2019-03-19T16:19:02.898Z,7.67
2019-03-19T16:21:31.051Z,8.93
2019-03-19T16:23:59.173Z,6.70
2019-03-19T16:26:27.304Z,6.33
2019-03-19T16:28:56.853Z,9.10
2019-03-19T16:31:26.151Z,8.40
2019-03-19T16:33:54.299Z,11.03
2019-03-19T16:36:22.449Z,11.10
2019-03-19T16:38:50.752Z,7.60
2019-03-19T16:41:19.067Z,9.03
2019-03-19T16:43:47.181Z,5.20
2019-03-19T16:46:16.055Z,8.80
2019-03-19T16:48:44.205Z,9.33
2019-03-19T16:51:14.117Z,11.20
2019-03-19T16:53:42.349Z,6.73
2019-03-19T16:56:10.465Z,7.13
2019-03-19T16:58:38.649Z,4.63
2019-03-19T17:01:07.118Z,7.07
2019-03-19T17:03:35.393Z,7.13
2019-03-19T17:06:04.661Z,8.57
2019-03-19T17:08:33.009Z,4.77
2019-03-19T17:11:01.625Z,9.30
2019-03-19T17:13:29.870Z,7.00
2019-03-19T17:15:58.779Z,9.33
2019-03-19T17:18:27.050Z,7.70
2019-03-19T17:20:55.136Z,8.90
2019-03-19T17:23:25.030Z,6.90
2019-03-19T17:25:54.677Z,7.73
2019-03-19T17:28:22.958Z,5.87
2019-03-19T17:30:51.803Z,8.93
2019-03-19T17:33:20.016Z,7.77
2019-03-19T17:35:48.158Z,10.37
2019-03-19T17:38:16.687Z,6.73
2019-03-19T17:40:46.694Z,7.33
2019-03-19T17:43:14.868Z,9.57
2019-03-19T17:45:43.162Z,8.40
2019-03-19T17:48:15.981Z,7.73
2019-03-19T17:50:42.386Z,8.87
2019-03-19T17:53:10.746Z,7.50
2019-03-19T17:55:38.929Z,10.77
2019-03-19T17:58:06.990Z,9.93
2019-03-19T18:00:36.257Z,11.00
2019-03-19T18:03:04.395Z,9.43
2019-03-19T18:05:32.566Z,7.53
2019-03-19T18:08:00.753Z,8.70
2019-03-19T18:10:28.933Z,10.63
2019-03-19T18:12:57.103Z,9.17
2019-03-19T18:15:25.478Z,8.10
2019-03-19T18:17:55.423Z,6.00
2019-03-19T18:20:24.706Z,11.70
2019-03-19T18:22:54.649Z,8.17
2019-03-19T18:25:23.932Z,7.77
2019-03-19T18:27:52.209Z,9.33
2019-03-19T18:30:20.464Z,7.60
2019-03-19T18:32:48.565Z,6.53
2019-03-19T18:35:18.614Z,8.80
2019-03-19T18:37:46.825Z,10.57
2019-03-19T18:40:15.154Z,10.33
2019-03-19T18:42:43.336Z,7.80
2019-03-19T18:45:11.649Z,10.27
2019-03-19T18:47:39.789Z,10.37
2019-03-19T18:50:09.253Z,7.30
2019-03-19T18:52:37.740Z,10.67
2019-03-19T18:55:06.270Z,9.00
2019-03-19T18:57:34.463Z,8.80
2019-03-19T19:00:02.842Z,6.83
2019-03-19T19:02:32.048Z,8.23
2019-03-19T19:05:00.358Z,8.13
2019-03-19T19:07:28.850Z,10.97
2019-03-19T19:09:56.985Z,8.50
2019-03-19T19:12:26.145Z,10.03
2019-03-19T19:14:54.268Z,7.77
2019-03-19T19:17:22.385Z,8.37
2019-03-19T19:19:50.457Z,8.83
2019-03-19T19:22:19.011Z,9.17
2019-03-19T19:24:47.289Z,8.03
2019-03-19T19:27:15.357Z,9.17
2019-03-19T19:29:43.695Z,10.37
2019-03-19T19:32:11.821Z,8.13
2019-03-19T19:34:39.941Z,7.83
2019-03-19T19:37:08.357Z,10.23
2019-03-19T19:39:37.580Z,12.13
2019-03-19T19:42:07.133Z,11.37
2019-03-19T19:44:35.562Z,9.57
2019-03-19T19:47:03.745Z,9.80
2019-03-19T19:49:32.053Z,7.57
2019-03-19T19:52:00.151Z,11.03
2019-03-19T19:54:29.016Z,15.13
2019-03-19T19:57:01.147Z,11.77
2019-03-19T19:59:29.389Z,12.57
2019-03-19T20:01:57.530Z,9.77
2019-03-19T20:04:25.595Z,10.60
2019-03-19T20:06:54.104Z,11.07
2019-03-19T20:09:22.865Z,8.20
2019-03-19T20:11:51.993Z,12.07
2019-03-19T20:14:20.107Z,11.73
2019-03-19T20:16:48.226Z,9.13
2019-03-19T20:19:16.302Z,7.77
2019-03-19T20:21:45.525Z,10.87
2019-03-19T20:24:13.789Z,11.63
2019-03-19T20:26:41.855Z,10.20
2019-03-19T20:29:10.235Z,9.20
2019-03-19T20:31:38.445Z,12.43
2019-03-19T20:34:06.611Z,11.50
2019-03-19T20:36:34.741Z,10.80
2019-03-19T20:39:02.829Z,11.00
2019-03-19T20:41:30.964Z,10.13
2019-03-19T20:43:59.162Z,13.73
2019-03-19T20:46:27.251Z,13.23
2019-03-19T20:48:55.366Z,12.17
2019-03-19T20:51:27.942Z,12.90
2019-03-19T20:53:56.124Z,12.00
2019-03-19T20:56:24.722Z,12.33
2019-03-19T20:58:54.170Z,10.60
2019-03-19T21:01:22.225Z,11.67
2019-03-19T21:03:50.378Z,14.63
2019-03-19T21:06:18.598Z,10.50
2019-03-19T21:08:47.761Z,7.50
2019-03-19T21:11:15.945Z,9.67
2019-03-19T21:13:44.282Z,9.83
2019-03-19T21:16:12.350Z,8.47
2019-03-19T21:18:40.477Z,9.37
2019-03-19T21:21:08.651Z,10.13
2019-03-19T21:23:36.837Z,11.30
2019-03-19T21:26:07.836Z,10.80
2019-03-19T21:28:37.078Z,9.67
2019-03-19T21:31:05.673Z,12.73
2019-03-19T21:33:34.753Z,9.67
2019-03-19T21:36:03.340Z,9.57
2019-03-19T21:38:31.412Z,11.73
2019-03-19T21:40:59.769Z,11.43
2019-03-19T21:43:28.039Z,11.37
2019-03-19T21:45:56.169Z,13.90
2019-03-19T21:48:24.367Z,12.93
2019-03-19T21:50:54.360Z,14.57
2019-03-19T21:53:24.178Z,11.60
2019-03-19T21:55:52.350Z,15.13
2019-03-19T21:58:20.952Z,13.60
2019-03-19T22:00:49.045Z,11.60
2019-03-19T22:03:17.196Z,12.93
2019-03-19T22:05:45.418Z,12.53
2019-03-19T22:08:13.572Z,13.87
2019-03-19T22:10:41.670Z,15.33
2019-03-19T22:13:11.754Z,14.73
2019-03-19T22:15:39.952Z,12.83
2019-03-19T22:18:08.131Z,15.63
2019-03-19T22:20:36.363Z,14.43
2019-03-19T22:23:04.440Z,12.63
2019-03-19T22:25:32.499Z,15.17
2019-03-19T22:28:00.817Z,14.37
2019-03-19T22:30:29.014Z,10.93
2019-03-19T22:32:57.200Z,12.03
2019-03-19T22:35:25.866Z,11.60
2019-03-19T22:37:53.954Z,9.33
2019-03-19T22:40:22.132Z,15.90
2019-03-19T22:42:50.506Z,13.70
2019-03-19T22:45:19.718Z,12.67
2019-03-19T22:47:48.892Z,14.27
2019-03-19T22:50:17.494Z,15.63
2019-03-19T22:52:47.121Z,16.00
2019-03-19T22:55:16.321Z,15.13
2019-03-19T22:57:45.818Z,13.90
2019-03-19T23:00:16.150Z,14.23
2019-03-19T23:02:44.325Z,15.83
2019-03-19T23:05:14.407Z,14.13
2019-03-19T23:07:42.538Z,13.77
2019-03-19T23:10:12.643Z,14.30
2019-03-19T23:12:40.814Z,13.73
2019-03-19T23:15:09.731Z,13.97
2019-03-19T23:17:38.929Z,14.27
2019-03-19T23:20:07.917Z,16.40
2019-03-19T23:22:36.100Z,14.43
2019-03-19T23:25:04.593Z,14.30
2019-03-19T23:27:34.706Z,18.93
2019-03-19T23:30:04.087Z,13.30
2019-03-19T23:32:32.312Z,12.93
2019-03-19T23:35:01.970Z,14.53
2019-03-19T23:37:30.196Z,11.87
2019-03-19T23:40:00.259Z,11.43
2019-03-19T23:42:28.905Z,15.73
2019-03-19T23:44:57.095Z,14.97
2019-03-19T23:47:25.265Z,15.67
2019-03-19T23:49:53.590Z,14.13
2019-03-19T23:52:23.465Z,13.57
2019-03-19T23:54:51.590Z,14.23
2019-03-19T23:57:19.716Z,16.83
2019-03-19T23:59:47.882Z,15.93
